sensor_id;sensor_type;location;lat;lon;timestamp;temperature;humidity
5276;DHT22;2661;50.786;12.728;2023-04-21T00:00:50;6.70;1.00
5276;DHT22;2661;50.786;12.728;2023-04-21T00:03:17;6.70;1.00
5276;DHT22;2661;50.786;12.728;2023-04-21T00:05:45;6.60;1.00
5276;DHT22;2661;50.786;12.728;2023-04-21T00:08:12;6.50;1.00
5276;DHT22;2661;50.786;12.728;2023-04-21T00:10:39;6.70;1.00
5276;DHT22;2661;50.786;12.728;2023-04-21T00:13:05;6.70;1.00
5276;DHT22;2661;50.786;12.728;2023-04-21T00:15:32;6.60;1.00
5276;DHT22;2661;50.786;12.728;2023-04-21T00:17:59;6.60;1.00
5276;DHT22;2661;50.786;12.728;2023-04-21T00:20:25;6.50;1.00
5276;DHT22;2661;50.786;12.728;2023-04-21T00:22:52;6.50;1.00
5276;DHT22;2661;50.786;12.728;2023-04-21T00:25:19;6.50;1.00
5276;DHT22;2661;50.786;12.728;2023-04-21T00:27:46;6.50;1.00
5276;DHT22;2661;50.786;12.728;2023-04-21T00:30:12;6.50;1.00
5276;DHT22;2661;50.786;12.728;2023-04-21T00:32:39;6.50;1.00
5276;DHT22;2661;50.786;12.728;2023-04-21T00:35:05;6.40;1.00
5276;DHT22;2661;50.786;12.728;2023-04-21T00:37:32;6.30;1.00
5276;DHT22;2661;50.786;12.728;2023-04-21T00:39:59;6.30;1.00
5276;DHT22;2661;50.786;12.728;2023-04-21T00:42:26;6.20;1.00
5276;DHT22;2661;50.786;12.728;2023-04-21T00:44:52;6.10;1.00
5276;DHT22;2661;50.786;12.728;2023-04-21T00:47:19;6.00;1.00
5276;DHT22;2661;50.786;12.728;2023-04-21T00:49:45;5.90;1.00
5276;DHT22;2661;50.786;12.728;2023-04-21T00:52:13;5.90;1.00
5276;DHT22;2661;50.786;12.728;2023-04-21T00:54:39;5.80;1.00
5276;DHT22;2661;50.786;12.728;2023-04-21T00:57:06;5.80;1.00
5276;DHT22;2661;50.786;12.728;2023-04-21T00:59:33;5.70;1.00
5276;DHT22;2661;50.786;12.728;2023-04-21T01:02:00;5.60;1.00
5276;DHT22;2661;50.786;12.728;2023-04-21T01:04:27;5.60;50.50
5276;DHT22;2661;50.786;12.728;2023-04-21T01:06:54;5.60;99.90
5276;DHT22;2661;50.786;12.728;2023-04-21T01:09:20;5.60;99.90
5276;DHT22;2661;50.786;12.728;2023-04-21T01:12:03;5.50;99.90
5276;DHT22;2661;50.786;12.728;2023-04-21T01:14:30;5.40;99.90
5276;DHT22;2661;50.786;12.728;2023-04-21T01:16:56;5.40;99.90
5276;DHT22;2661;50.786;12.728;2023-04-21T01:19:23;5.30;99.90
5276;DHT22;2661;50.786;12.728;2023-04-21T01:21:50;5.40;99.90
5276;DHT22;2661;50.786;12.728;2023-04-21T01:24:19;5.30;99.90
5276;DHT22;2661;50.786;12.728;2023-04-21T01:26:45;5.30;99.90
5276;DHT22;2661;50.786;12.728;2023-04-21T01:29:15;5.30;99.90
5276;DHT22;2661;50.786;12.728;2023-04-21T01:31:42;5.30;99.90
5276;DHT22;2661;50.786;12.728;2023-04-21T01:34:09;5.20;99.90
5276;DHT22;2661;50.786;12.728;2023-04-21T01:36:36;5.30;99.90
5276;DHT22;2661;50.786;12.728;2023-04-21T01:39:02;5.30;99.90
5276;DHT22;2661;50.786;12.728;2023-04-21T01:41:29;5.30;1.00
5276;DHT22;2661;50.786;12.728;2023-04-21T01:43:56;5.30;1.00
5276;DHT22;2661;50.786;12.728;2023-04-21T01:46:22;5.30;1.00
5276;DHT22;2661;50.786;12.728;2023-04-21T01:48:49;5.20;1.00
5276;DHT22;2661;50.786;12.728;2023-04-21T01:51:15;5.20;1.00
5276;DHT22;2661;50.786;12.728;2023-04-21T01:53:42;5.20;1.00
5276;DHT22;2661;50.786;12.728;2023-04-21T01:56:12;5.20;1.00
5276;DHT22;2661;50.786;12.728;2023-04-21T01:58:38;5.10;1.00
5276;DHT22;2661;50.786;12.728;2023-04-21T02:01:05;5.10;1.00
5276;DHT22;2661;50.786;12.728;2023-04-21T02:03:31;5.10;99.90
5276;DHT22;2661;50.786;12.728;2023-04-21T02:05:58;5.00;99.90
5276;DHT22;2661;50.786;12.728;2023-04-21T02:08:25;5.10;1.00
5276;DHT22;2661;50.786;12.728;2023-04-21T02:10:51;5.20;1.00
5276;DHT22;2661;50.786;12.728;2023-04-21T02:13:18;5.30;1.00
5276;DHT22;2661;50.786;12.728;2023-04-21T02:15:44;5.20;1.00
5276;DHT22;2661;50.786;12.728;2023-04-21T02:18:11;5.30;1.00
5276;DHT22;2661;50.786;12.728;2023-04-21T02:20:38;5.30;1.00
5276;DHT22;2661;50.786;12.728;2023-04-21T02:23:05;5.30;1.00
5276;DHT22;2661;50.786;12.728;2023-04-21T02:25:31;5.30;99.90
5276;DHT22;2661;50.786;12.728;2023-04-21T02:27:58;5.20;1.00
5276;DHT22;2661;50.786;12.728;2023-04-21T02:30:25;5.20;1.00
5276;DHT22;2661;50.786;12.728;2023-04-21T02:32:51;5.10;1.00
5276;DHT22;2661;50.786;12.728;2023-04-21T02:35:18;5.10;1.00
5276;DHT22;2661;50.786;12.728;2023-04-21T02:37:44;5.20;1.00
5276;DHT22;2661;50.786;12.728;2023-04-21T02:40:11;5.20;99.90
5276;DHT22;2661;50.786;12.728;2023-04-21T02:42:38;5.30;99.90
5276;DHT22;2661;50.786;12.728;2023-04-21T02:45:04;5.40;1.00
5276;DHT22;2661;50.786;12.728;2023-04-21T02:47:31;5.40;1.00
5276;DHT22;2661;50.786;12.728;2023-04-21T02:49:58;5.60;1.00
5276;DHT22;2661;50.786;12.728;2023-04-21T02:52:24;5.80;99.90
5276;DHT22;2661;50.786;12.728;2023-04-21T02:54:51;5.90;1.00
5276;DHT22;2661;50.786;12.728;2023-04-21T02:57:17;6.20;99.90
5276;DHT22;2661;50.786;12.728;2023-04-21T02:59:44;6.30;42.90
5276;DHT22;2661;50.786;12.728;2023-04-21T03:02:11;6.40;1.00
5276;DHT22;2661;50.786;12.728;2023-04-21T03:04:37;6.30;1.00
5276;DHT22;2661;50.786;12.728;2023-04-21T03:07:04;6.30;1.00
5276;DHT22;2661;50.786;12.728;2023-04-21T03:09:31;6.30;1.00
5276;DHT22;2661;50.786;12.728;2023-04-21T03:11:57;6.20;1.00
5276;DHT22;2661;50.786;12.728;2023-04-21T03:14:24;6.20;1.00
5276;DHT22;2661;50.786;12.728;2023-04-21T03:16:50;6.10;1.00
5276;DHT22;2661;50.786;12.728;2023-04-21T03:19:17;6.10;1.00
5276;DHT22;2661;50.786;12.728;2023-04-21T03:21:44;6.00;1.00
5276;DHT22;2661;50.786;12.728;2023-04-21T03:24:11;6.10;1.00
5276;DHT22;2661;50.786;12.728;2023-04-21T03:26:38;6.00;1.00
5276;DHT22;2661;50.786;12.728;2023-04-21T03:29:06;6.00;1.00
5276;DHT22;2661;50.786;12.728;2023-04-21T03:31:32;5.90;1.00
5276;DHT22;2661;50.786;12.728;2023-04-21T03:33:59;5.90;1.00
5276;DHT22;2661;50.786;12.728;2023-04-21T03:36:25;5.80;1.00
5276;DHT22;2661;50.786;12.728;2023-04-21T03:38:52;5.80;1.00
5276;DHT22;2661;50.786;12.728;2023-04-21T03:41:18;5.80;35.30
5276;DHT22;2661;50.786;12.728;2023-04-21T03:43:45;5.80;99.90
5276;DHT22;2661;50.786;12.728;2023-04-21T03:46:18;5.80;99.90
5276;DHT22;2661;50.786;12.728;2023-04-21T03:48:45;5.80;99.90
5276;DHT22;2661;50.786;12.728;2023-04-21T03:51:12;5.90;99.90
5276;DHT22;2661;50.786;12.728;2023-04-21T03:53:39;5.90;99.90
5276;DHT22;2661;50.786;12.728;2023-04-21T03:56:06;5.90;99.90
5276;DHT22;2661;50.786;12.728;2023-04-21T03:58:33;6.00;99.90
5276;DHT22;2661;50.786;12.728;2023-04-21T04:00:59;6.00;45.20
5276;DHT22;2661;50.786;12.728;2023-04-21T04:03:26;6.10;8.60
5276;DHT22;2661;50.786;12.728;2023-04-21T04:05:53;6.10;1.00
5276;DHT22;2661;50.786;12.728;2023-04-21T04:08:19;6.20;1.00
5276;DHT22;2661;50.786;12.728;2023-04-21T04:10:46;6.20;1.00
5276;DHT22;2661;50.786;12.728;2023-04-21T04:13:12;6.30;1.00
5276;DHT22;2661;50.786;12.728;2023-04-21T04:15:40;6.30;1.00
5276;DHT22;2661;50.786;12.728;2023-04-21T04:18:07;6.40;1.00
5276;DHT22;2661;50.786;12.728;2023-04-21T04:20:34;6.50;1.00
5276;DHT22;2661;50.786;12.728;2023-04-21T04:23:01;6.60;1.00
5276;DHT22;2661;50.786;12.728;2023-04-21T04:25:27;6.60;1.00
5276;DHT22;2661;50.786;12.728;2023-04-21T04:27:54;6.70;1.00
5276;DHT22;2661;50.786;12.728;2023-04-21T04:30:22;6.80;1.00
5276;DHT22;2661;50.786;12.728;2023-04-21T04:32:53;6.80;1.00
5276;DHT22;2661;50.786;12.728;2023-04-21T04:35:20;6.90;1.00
5276;DHT22;2661;50.786;12.728;2023-04-21T04:37:46;6.90;99.90
5276;DHT22;2661;50.786;12.728;2023-04-21T04:40:13;6.90;99.90
5276;DHT22;2661;50.786;12.728;2023-04-21T04:42:41;7.00;99.90
5276;DHT22;2661;50.786;12.728;2023-04-21T04:45:07;7.20;99.90
5276;DHT22;2661;50.786;12.728;2023-04-21T04:47:34;7.20;99.90
5276;DHT22;2661;50.786;12.728;2023-04-21T04:50:01;7.30;99.90
5276;DHT22;2661;50.786;12.728;2023-04-21T04:52:28;7.40;99.90
5276;DHT22;2661;50.786;12.728;2023-04-21T04:54:54;7.50;99.90
5276;DHT22;2661;50.786;12.728;2023-04-21T04:57:21;7.50;99.90
5276;DHT22;2661;50.786;12.728;2023-04-21T04:59:47;7.60;99.90
5276;DHT22;2661;50.786;12.728;2023-04-21T05:02:14;7.70;99.90
5276;DHT22;2661;50.786;12.728;2023-04-21T05:04:41;7.70;99.90
5276;DHT22;2661;50.786;12.728;2023-04-21T05:07:07;7.80;99.90
5276;DHT22;2661;50.786;12.728;2023-04-21T05:09:34;7.80;99.90
5276;DHT22;2661;50.786;12.728;2023-04-21T05:12:01;7.90;99.90
5276;DHT22;2661;50.786;12.728;2023-04-21T05:14:27;8.00;99.90
5276;DHT22;2661;50.786;12.728;2023-04-21T05:16:54;8.00;99.90
5276;DHT22;2661;50.786;12.728;2023-04-21T05:19:21;8.10;99.90
5276;DHT22;2661;50.786;12.728;2023-04-21T05:21:47;8.10;99.90
5276;DHT22;2661;50.786;12.728;2023-04-21T05:24:14;8.20;99.90
5276;DHT22;2661;50.786;12.728;2023-04-21T05:26:40;8.20;99.90
5276;DHT22;2661;50.786;12.728;2023-04-21T05:29:07;8.20;99.90
5276;DHT22;2661;50.786;12.728;2023-04-21T05:31:34;8.30;99.90
5276;DHT22;2661;50.786;12.728;2023-04-21T05:34:01;8.40;99.90
5276;DHT22;2661;50.786;12.728;2023-04-21T05:36:27;8.40;99.90
5276;DHT22;2661;50.786;12.728;2023-04-21T05:38:55;8.50;99.90
5276;DHT22;2661;50.786;12.728;2023-04-21T05:41:22;8.60;99.90
5276;DHT22;2661;50.786;12.728;2023-04-21T05:43:49;8.60;99.90
5276;DHT22;2661;50.786;12.728;2023-04-21T05:46:15;8.60;99.90
5276;DHT22;2661;50.786;12.728;2023-04-21T05:48:42;8.70;99.90
5276;DHT22;2661;50.786;12.728;2023-04-21T05:53:39;8.90;99.90
5276;DHT22;2661;50.786;12.728;2023-04-21T05:56:09;9.00;99.90
5276;DHT22;2661;50.786;12.728;2023-04-21T05:58:36;9.10;99.90
5276;DHT22;2661;50.786;12.728;2023-04-21T06:01:03;9.20;99.90
5276;DHT22;2661;50.786;12.728;2023-04-21T06:03:29;9.20;99.90
5276;DHT22;2661;50.786;12.728;2023-04-21T06:05:59;9.30;99.90
5276;DHT22;2661;50.786;12.728;2023-04-21T06:08:26;9.30;99.90
5276;DHT22;2661;50.786;12.728;2023-04-21T06:10:52;9.40;99.90
5276;DHT22;2661;50.786;12.728;2023-04-21T06:13:19;9.50;99.90
5276;DHT22;2661;50.786;12.728;2023-04-21T06:15:45;9.50;99.90
5276;DHT22;2661;50.786;12.728;2023-04-21T06:18:12;9.60;99.90
5276;DHT22;2661;50.786;12.728;2023-04-21T06:20:39;9.60;99.90
5276;DHT22;2661;50.786;12.728;2023-04-21T06:23:08;9.70;99.90
5276;DHT22;2661;50.786;12.728;2023-04-21T06:25:35;9.80;99.90
5276;DHT22;2661;50.786;12.728;2023-04-21T06:28:01;9.80;99.90
5276;DHT22;2661;50.786;12.728;2023-04-21T06:30:28;9.80;99.90
5276;DHT22;2661;50.786;12.728;2023-04-21T06:32:54;9.90;99.90
5276;DHT22;2661;50.786;12.728;2023-04-21T06:35:21;10.00;99.90
5276;DHT22;2661;50.786;12.728;2023-04-21T06:37:48;10.00;99.90
5276;DHT22;2661;50.786;12.728;2023-04-21T06:40:14;10.00;99.90
5276;DHT22;2661;50.786;12.728;2023-04-21T06:42:44;10.00;99.90
5276;DHT22;2661;50.786;12.728;2023-04-21T06:45:10;10.00;99.90
5276;DHT22;2661;50.786;12.728;2023-04-21T06:47:37;10.20;99.90
5276;DHT22;2661;50.786;12.728;2023-04-21T06:50:03;10.40;99.90
5276;DHT22;2661;50.786;12.728;2023-04-21T06:52:30;10.50;99.90
5276;DHT22;2661;50.786;12.728;2023-04-21T06:54:57;10.60;99.90
5276;DHT22;2661;50.786;12.728;2023-04-21T06:57:24;10.70;99.90
5276;DHT22;2661;50.786;12.728;2023-04-21T06:59:50;10.80;99.90
5276;DHT22;2661;50.786;12.728;2023-04-21T07:02:17;11.00;99.90
5276;DHT22;2661;50.786;12.728;2023-04-21T07:04:43;11.10;99.90
5276;DHT22;2661;50.786;12.728;2023-04-21T07:07:10;11.20;98.40
5276;DHT22;2661;50.786;12.728;2023-04-21T07:09:37;11.30;98.90
5276;DHT22;2661;50.786;12.728;2023-04-21T07:12:03;11.40;99.90
5276;DHT22;2661;50.786;12.728;2023-04-21T07:14:30;11.40;99.90
5276;DHT22;2661;50.786;12.728;2023-04-21T07:16:56;11.40;92.40
5276;DHT22;2661;50.786;12.728;2023-04-21T07:19:23;11.50;91.90
5276;DHT22;2661;50.786;12.728;2023-04-21T07:21:49;11.60;97.50
5276;DHT22;2661;50.786;12.728;2023-04-21T07:24:16;11.80;90.10
5276;DHT22;2661;50.786;12.728;2023-04-21T07:26:43;11.80;98.70
5276;DHT22;2661;50.786;12.728;2023-04-21T07:29:09;11.90;96.00
5276;DHT22;2661;50.786;12.728;2023-04-21T07:31:36;11.90;79.10
5276;DHT22;2661;50.786;12.728;2023-04-21T07:34:03;11.90;99.90
5276;DHT22;2661;50.786;12.728;2023-04-21T07:36:29;12.00;99.90
5276;DHT22;2661;50.786;12.728;2023-04-21T07:38:57;12.20;99.50
5276;DHT22;2661;50.786;12.728;2023-04-21T07:41:23;12.30;99.90
5276;DHT22;2661;50.786;12.728;2023-04-21T07:43:50;12.30;99.90
5276;DHT22;2661;50.786;12.728;2023-04-21T07:46:19;12.30;99.90
5276;DHT22;2661;50.786;12.728;2023-04-21T07:48:47;12.30;97.40
5276;DHT22;2661;50.786;12.728;2023-04-21T07:51:13;12.40;93.70
5276;DHT22;2661;50.786;12.728;2023-04-21T07:53:43;12.50;98.90
5276;DHT22;2661;50.786;12.728;2023-04-21T07:56:09;12.60;99.90
5276;DHT22;2661;50.786;12.728;2023-04-21T07:58:38;12.70;69.80
5276;DHT22;2661;50.786;12.728;2023-04-21T08:01:04;12.80;74.50
5276;DHT22;2661;50.786;12.728;2023-04-21T08:03:31;12.80;99.30
5276;DHT22;2661;50.786;12.728;2023-04-21T08:05:58;12.70;93.20
5276;DHT22;2661;50.786;12.728;2023-04-21T08:08:25;12.70;99.90
5276;DHT22;2661;50.786;12.728;2023-04-21T08:10:52;12.70;99.90
5276;DHT22;2661;50.786;12.728;2023-04-21T08:13:18;12.70;99.90
5276;DHT22;2661;50.786;12.728;2023-04-21T08:15:47;12.70;99.90
5276;DHT22;2661;50.786;12.728;2023-04-21T08:18:13;12.80;99.90
5276;DHT22;2661;50.786;12.728;2023-04-21T08:20:44;13.00;99.90
5276;DHT22;2661;50.786;12.728;2023-04-21T08:23:12;13.10;99.90
5276;DHT22;2661;50.786;12.728;2023-04-21T08:25:39;13.20;90.90
5276;DHT22;2661;50.786;12.728;2023-04-21T08:28:06;13.20;99.90
5276;DHT22;2661;50.786;12.728;2023-04-21T08:30:32;13.30;99.90
5276;DHT22;2661;50.786;12.728;2023-04-21T08:32:59;13.40;99.90
5276;DHT22;2661;50.786;12.728;2023-04-21T08:35:26;13.50;99.90
5276;DHT22;2661;50.786;12.728;2023-04-21T08:37:52;13.60;99.90
5276;DHT22;2661;50.786;12.728;2023-04-21T08:40:19;13.70;99.90
5276;DHT22;2661;50.786;12.728;2023-04-21T08:42:47;13.70;99.90
5276;DHT22;2661;50.786;12.728;2023-04-21T08:45:13;13.80;99.90
5276;DHT22;2661;50.786;12.728;2023-04-21T08:47:40;13.80;99.90
5276;DHT22;2661;50.786;12.728;2023-04-21T08:50:10;13.80;99.90
5276;DHT22;2661;50.786;12.728;2023-04-21T08:52:38;13.80;99.90
5276;DHT22;2661;50.786;12.728;2023-04-21T08:55:04;13.80;99.90
5276;DHT22;2661;50.786;12.728;2023-04-21T08:57:32;13.80;99.90
5276;DHT22;2661;50.786;12.728;2023-04-21T08:59:59;13.80;99.90
5276;DHT22;2661;50.786;12.728;2023-04-21T09:02:26;13.90;99.90
5276;DHT22;2661;50.786;12.728;2023-04-21T09:04:53;13.80;99.90
5276;DHT22;2661;50.786;12.728;2023-04-21T09:09:56;13.80;99.90
5276;DHT22;2661;50.786;12.728;2023-04-21T09:12:23;13.80;99.90
5276;DHT22;2661;50.786;12.728;2023-04-21T09:14:50;13.80;99.90
5276;DHT22;2661;50.786;12.728;2023-04-21T09:17:17;13.90;99.90
5276;DHT22;2661;50.786;12.728;2023-04-21T09:19:44;14.00;99.90
5276;DHT22;2661;50.786;12.728;2023-04-21T09:22:14;14.00;99.90
5276;DHT22;2661;50.786;12.728;2023-04-21T09:24:48;14.10;99.90
5276;DHT22;2661;50.786;12.728;2023-04-21T09:27:15;14.20;99.90
5276;DHT22;2661;50.786;12.728;2023-04-21T09:29:46;14.30;99.90
5276;DHT22;2661;50.786;12.728;2023-04-21T09:32:17;14.20;99.90
5276;DHT22;2661;50.786;12.728;2023-04-21T09:34:45;14.40;99.90
5276;DHT22;2661;50.786;12.728;2023-04-21T09:37:12;14.50;99.90
5276;DHT22;2661;50.786;12.728;2023-04-21T09:39:43;14.50;99.90
5276;DHT22;2661;50.786;12.728;2023-04-21T09:42:32;14.60;99.90
5276;DHT22;2661;50.786;12.728;2023-04-21T09:45:04;14.70;99.90
5276;DHT22;2661;50.786;12.728;2023-04-21T09:47:34;14.80;99.90
5276;DHT22;2661;50.786;12.728;2023-04-21T09:50:04;14.80;99.90
5276;DHT22;2661;50.786;12.728;2023-04-21T09:52:32;15.00;99.90
5276;DHT22;2661;50.786;12.728;2023-04-21T09:55:00;15.10;99.90
5276;DHT22;2661;50.786;12.728;2023-04-21T09:57:32;15.00;99.90
5276;DHT22;2661;50.786;12.728;2023-04-21T10:00:02;15.10;99.90
5276;DHT22;2661;50.786;12.728;2023-04-21T10:02:30;15.20;99.90
5276;DHT22;2661;50.786;12.728;2023-04-21T10:04:59;15.20;99.90
5276;DHT22;2661;50.786;12.728;2023-04-21T10:07:26;15.20;99.90
5276;DHT22;2661;50.786;12.728;2023-04-21T10:09:53;15.30;99.90
5276;DHT22;2661;50.786;12.728;2023-04-21T10:12:21;15.30;99.90
5276;DHT22;2661;50.786;12.728;2023-04-21T10:14:52;15.30;99.90
5276;DHT22;2661;50.786;12.728;2023-04-21T10:17:22;15.30;99.90
5276;DHT22;2661;50.786;12.728;2023-04-21T10:19:53;15.20;99.90
5276;DHT22;2661;50.786;12.728;2023-04-21T10:22:32;15.20;99.90
5276;DHT22;2661;50.786;12.728;2023-04-21T10:25:00;15.30;99.90
5276;DHT22;2661;50.786;12.728;2023-04-21T10:27:38;15.40;99.90
5276;DHT22;2661;50.786;12.728;2023-04-21T10:30:23;15.40;99.90
5276;DHT22;2661;50.786;12.728;2023-04-21T10:33:02;15.50;99.90
5276;DHT22;2661;50.786;12.728;2023-04-21T10:38:32;15.60;99.90
5276;DHT22;2661;50.786;12.728;2023-04-21T10:43:44;15.70;99.90
5276;DHT22;2661;50.786;12.728;2023-04-21T10:46:30;15.80;99.90
5276;DHT22;2661;50.786;12.728;2023-04-21T10:49:30;16.00;99.90
5276;DHT22;2661;50.786;12.728;2023-04-21T10:54:23;16.20;99.90
5276;DHT22;2661;50.786;12.728;2023-04-21T10:56:52;16.20;99.90
5276;DHT22;2661;50.786;12.728;2023-04-21T10:59:19;16.20;99.90
5276;DHT22;2661;50.786;12.728;2023-04-21T11:01:45;16.30;99.90
5276;DHT22;2661;50.786;12.728;2023-04-21T11:04:19;16.30;99.90
5276;DHT22;2661;50.786;12.728;2023-04-21T11:09:33;16.20;99.90
5276;DHT22;2661;50.786;12.728;2023-04-21T11:12:03;16.20;99.90
5276;DHT22;2661;50.786;12.728;2023-04-21T11:14:33;16.10;99.90
5276;DHT22;2661;50.786;12.728;2023-04-21T11:17:02;16.10;99.90
5276;DHT22;2661;50.786;12.728;2023-04-21T11:19:32;16.00;99.90
5276;DHT22;2661;50.786;12.728;2023-04-21T11:21:59;16.00;99.90
5276;DHT22;2661;50.786;12.728;2023-04-21T11:24:25;16.10;99.90
5276;DHT22;2661;50.786;12.728;2023-04-21T11:26:52;16.10;99.90
5276;DHT22;2661;50.786;12.728;2023-04-21T11:29:19;16.30;99.90
5276;DHT22;2661;50.786;12.728;2023-04-21T11:31:45;16.50;99.90
5276;DHT22;2661;50.786;12.728;2023-04-21T11:34:14;16.60;99.90
5276;DHT22;2661;50.786;12.728;2023-04-21T11:36:42;16.60;99.90
5276;DHT22;2661;50.786;12.728;2023-04-21T11:39:10;16.60;99.90
5276;DHT22;2661;50.786;12.728;2023-04-21T11:41:41;16.40;99.90
5276;DHT22;2661;50.786;12.728;2023-04-21T11:44:11;16.20;99.90
5276;DHT22;2661;50.786;12.728;2023-04-21T11:46:45;16.00;99.90
5276;DHT22;2661;50.786;12.728;2023-04-21T11:49:12;16.10;99.90
5276;DHT22;2661;50.786;12.728;2023-04-21T11:51:40;16.10;99.90
5276;DHT22;2661;50.786;12.728;2023-04-21T11:54:09;16.00;99.90
5276;DHT22;2661;50.786;12.728;2023-04-21T11:56:41;16.10;99.90
5276;DHT22;2661;50.786;12.728;2023-04-21T11:59:13;16.20;99.90
5276;DHT22;2661;50.786;12.728;2023-04-21T12:01:47;16.30;99.90
5276;DHT22;2661;50.786;12.728;2023-04-21T12:04:14;16.20;99.90
5276;DHT22;2661;50.786;12.728;2023-04-21T12:06:43;16.20;99.90
5276;DHT22;2661;50.786;12.728;2023-04-21T12:09:15;16.20;99.90
5276;DHT22;2661;50.786;12.728;2023-04-21T12:11:42;16.40;99.90
5276;DHT22;2661;50.786;12.728;2023-04-21T12:14:08;16.50;99.90
5276;DHT22;2661;50.786;12.728;2023-04-21T12:16:35;16.60;99.90
5276;DHT22;2661;50.786;12.728;2023-04-21T12:19:02;16.60;99.90
5276;DHT22;2661;50.786;12.728;2023-04-21T12:21:29;16.50;99.90
5276;DHT22;2661;50.786;12.728;2023-04-21T12:23:55;16.40;99.90
5276;DHT22;2661;50.786;12.728;2023-04-21T12:26:22;16.40;99.90
5276;DHT22;2661;50.786;12.728;2023-04-21T12:28:58;16.40;99.90
5276;DHT22;2661;50.786;12.728;2023-04-21T12:31:25;16.40;99.90
5276;DHT22;2661;50.786;12.728;2023-04-21T12:33:52;16.30;99.90
5276;DHT22;2661;50.786;12.728;2023-04-21T12:36:19;16.30;99.90
5276;DHT22;2661;50.786;12.728;2023-04-21T12:38:45;16.30;99.90
5276;DHT22;2661;50.786;12.728;2023-04-21T12:41:12;16.30;99.90
5276;DHT22;2661;50.786;12.728;2023-04-21T12:43:38;16.30;99.90
5276;DHT22;2661;50.786;12.728;2023-04-21T12:46:29;16.40;99.90
5276;DHT22;2661;50.786;12.728;2023-04-21T12:48:56;16.40;99.90
5276;DHT22;2661;50.786;12.728;2023-04-21T12:51:23;16.40;99.90
5276;DHT22;2661;50.786;12.728;2023-04-21T12:53:49;16.30;99.90
5276;DHT22;2661;50.786;12.728;2023-04-21T12:56:16;16.30;99.90
5276;DHT22;2661;50.786;12.728;2023-04-21T12:58:43;16.30;99.90
5276;DHT22;2661;50.786;12.728;2023-04-21T13:01:09;16.40;99.90
5276;DHT22;2661;50.786;12.728;2023-04-21T13:03:40;16.50;99.90
5276;DHT22;2661;50.786;12.728;2023-04-21T13:06:07;16.60;99.90
5276;DHT22;2661;50.786;12.728;2023-04-21T13:08:34;16.90;99.90
5276;DHT22;2661;50.786;12.728;2023-04-21T13:11:01;17.10;99.90
5276;DHT22;2661;50.786;12.728;2023-04-21T13:13:29;17.30;99.90
5276;DHT22;2661;50.786;12.728;2023-04-21T13:15:55;17.30;99.90
5276;DHT22;2661;50.786;12.728;2023-04-21T13:18:22;17.30;99.90
5276;DHT22;2661;50.786;12.728;2023-04-21T13:20:48;17.30;99.90
5276;DHT22;2661;50.786;12.728;2023-04-21T13:23:15;17.10;99.90
5276;DHT22;2661;50.786;12.728;2023-04-21T13:25:42;17.00;99.90
5276;DHT22;2661;50.786;12.728;2023-04-21T13:28:11;17.00;99.90
5276;DHT22;2661;50.786;12.728;2023-04-21T13:30:39;16.90;99.90
5276;DHT22;2661;50.786;12.728;2023-04-21T13:33:05;17.10;99.90
5276;DHT22;2661;50.786;12.728;2023-04-21T13:35:32;17.00;99.90
5276;DHT22;2661;50.786;12.728;2023-04-21T13:37:59;16.90;99.90
5276;DHT22;2661;50.786;12.728;2023-04-21T13:40:25;16.80;99.90
5276;DHT22;2661;50.786;12.728;2023-04-21T13:42:52;16.70;99.90
5276;DHT22;2661;50.786;12.728;2023-04-21T13:45:19;16.70;99.90
5276;DHT22;2661;50.786;12.728;2023-04-21T13:47:45;16.80;99.90
5276;DHT22;2661;50.786;12.728;2023-04-21T13:50:12;16.90;99.90
5276;DHT22;2661;50.786;12.728;2023-04-21T13:52:39;16.90;99.90
5276;DHT22;2661;50.786;12.728;2023-04-21T13:55:06;16.80;99.90
5276;DHT22;2661;50.786;12.728;2023-04-21T13:57:32;16.70;99.90
5276;DHT22;2661;50.786;12.728;2023-04-21T13:59:59;16.80;99.90
5276;DHT22;2661;50.786;12.728;2023-04-21T14:02:25;16.80;99.90
5276;DHT22;2661;50.786;12.728;2023-04-21T14:04:52;16.90;99.90
5276;DHT22;2661;50.786;12.728;2023-04-21T14:07:19;17.00;99.90
5276;DHT22;2661;50.786;12.728;2023-04-21T14:09:48;17.20;99.90
5276;DHT22;2661;50.786;12.728;2023-04-21T14:12:15;17.40;99.90
5276;DHT22;2661;50.786;12.728;2023-04-21T14:14:42;17.50;99.90
5276;DHT22;2661;50.786;12.728;2023-04-21T14:17:09;17.50;99.90
5276;DHT22;2661;50.786;12.728;2023-04-21T14:19:35;17.30;99.90
5276;DHT22;2661;50.786;12.728;2023-04-21T14:22:02;17.20;99.90
5276;DHT22;2661;50.786;12.728;2023-04-21T14:24:29;17.10;99.90
5276;DHT22;2661;50.786;12.728;2023-04-21T14:26:57;17.10;99.90
5276;DHT22;2661;50.786;12.728;2023-04-21T14:29:24;17.00;99.90
5276;DHT22;2661;50.786;12.728;2023-04-21T14:31:51;17.00;99.90
5276;DHT22;2661;50.786;12.728;2023-04-21T14:34:19;16.90;99.90
5276;DHT22;2661;50.786;12.728;2023-04-21T14:36:45;16.80;99.90
5276;DHT22;2661;50.786;12.728;2023-04-21T14:39:15;16.70;99.90
5276;DHT22;2661;50.786;12.728;2023-04-21T14:41:42;16.60;99.90
5276;DHT22;2661;50.786;12.728;2023-04-21T14:44:08;16.60;99.90
5276;DHT22;2661;50.786;12.728;2023-04-21T14:46:35;16.60;99.90
5276;DHT22;2661;50.786;12.728;2023-04-21T14:49:02;16.70;99.90
5276;DHT22;2661;50.786;12.728;2023-04-21T14:51:29;16.70;99.90
5276;DHT22;2661;50.786;12.728;2023-04-21T14:53:57;16.80;99.90
5276;DHT22;2661;50.786;12.728;2023-04-21T14:56:23;16.80;99.90
5276;DHT22;2661;50.786;12.728;2023-04-21T14:58:50;16.90;99.90
5276;DHT22;2661;50.786;12.728;2023-04-21T15:01:17;16.90;99.90
5276;DHT22;2661;50.786;12.728;2023-04-21T15:03:43;16.80;99.90
5276;DHT22;2661;50.786;12.728;2023-04-21T15:06:10;16.80;99.90
5276;DHT22;2661;50.786;12.728;2023-04-21T15:08:37;16.90;99.90
5276;DHT22;2661;50.786;12.728;2023-04-21T15:11:04;16.90;99.90
5276;DHT22;2661;50.786;12.728;2023-04-21T15:13:31;16.90;99.90
5276;DHT22;2661;50.786;12.728;2023-04-21T15:15:57;16.90;99.90
5276;DHT22;2661;50.786;12.728;2023-04-21T15:18:24;17.10;99.90
5276;DHT22;2661;50.786;12.728;2023-04-21T15:20:51;17.10;99.90
5276;DHT22;2661;50.786;12.728;2023-04-21T15:23:17;17.10;99.90
5276;DHT22;2661;50.786;12.728;2023-04-21T15:25:44;17.10;99.90
5276;DHT22;2661;50.786;12.728;2023-04-21T15:28:10;17.00;99.90
5276;DHT22;2661;50.786;12.728;2023-04-21T15:30:38;17.00;99.90
5276;DHT22;2661;50.786;12.728;2023-04-21T15:33:04;17.00;99.90
5276;DHT22;2661;50.786;12.728;2023-04-21T15:35:31;17.00;99.90
5276;DHT22;2661;50.786;12.728;2023-04-21T15:38:00;17.00;99.90
5276;DHT22;2661;50.786;12.728;2023-04-21T15:40:26;17.00;99.90
5276;DHT22;2661;50.786;12.728;2023-04-21T15:42:53;17.10;99.90
5276;DHT22;2661;50.786;12.728;2023-04-21T15:45:19;17.00;99.90
5276;DHT22;2661;50.786;12.728;2023-04-21T15:47:46;17.00;99.90
5276;DHT22;2661;50.786;12.728;2023-04-21T15:50:13;17.00;99.90
5276;DHT22;2661;50.786;12.728;2023-04-21T15:52:39;17.10;99.90
5276;DHT22;2661;50.786;12.728;2023-04-21T15:55:11;17.10;99.90
5276;DHT22;2661;50.786;12.728;2023-04-21T15:57:38;17.10;99.90
5276;DHT22;2661;50.786;12.728;2023-04-21T16:00:05;17.10;99.90
5276;DHT22;2661;50.786;12.728;2023-04-21T16:02:32;17.10;99.90
5276;DHT22;2661;50.786;12.728;2023-04-21T16:05:00;17.20;99.90
5276;DHT22;2661;50.786;12.728;2023-04-21T16:07:27;17.20;99.90
5276;DHT22;2661;50.786;12.728;2023-04-21T16:09:54;17.20;99.90
5276;DHT22;2661;50.786;12.728;2023-04-21T16:12:21;17.20;99.90